Time;durP1;ratioP1;P1;durP2;ratioP2;P2;SDS_P1;SDS_P2;PMS_P1;PMS_P2;Temp;Humidity;BMP_temperature;BMP_pressure;BME280_temperature;BME280_humidity;BME280_pressure;Samples;Min_cycle;Max_cycle;Signal;HPM_P1;HPM_P2
2021/12/22 06:49:25;;;;;;;16.83;10.18;;;;;;;;;;10590567;27;20474;-82
2021/12/22 06:54:26;;;;;;;;;;;;;;;;;;10581197;28;20125;-83
2021/12/22 06:59:27;;;;;;;21.90;12.60;;;;;;;;;;10565575;28;20346;-83
2021/12/22 07:04:28;;;;;;;20.67;11.25;;;;;;;;;;10553858;28;20082;-83
2021/12/22 07:09:29;;;;;;;20.77;13.05;;;;;;;;;;10551102;28;20028;-83
2021/12/22 07:14:30;;;;;;;25.73;14.93;;;;;;;;;;10551682;28;20382;-83
2021/12/22 07:19:31;;;;;;;20.48;12.13;;;;;;;;;;10549201;28;20046;-83
2021/12/22 07:24:32;;;;;;;23.70;13.88;;;;;;;;;;10550885;28;20039;-83
2021/12/22 07:29:33;;;;;;;16.75;10.77;;;;;;;;;;10547776;28;20164;-83
2021/12/22 07:34:38;;;;;;;23.95;14.43;;;;;;;;;;10549134;28;20426;-83
2021/12/22 07:39:39;;;;;;;18.60;12.18;;;;;;;;;;10571391;28;20587;-83
2021/12/22 07:44:40;;;;;;;22.33;13.13;;;;;;;;;;10552625;28;20025;-83
2021/12/22 07:49:41;;;;;;;19.55;12.07;;;;;;;;;;10553264;28;20375;-82
2021/12/22 07:54:42;;;;;;;;;;;;;;;;;;10552243;28;20033;-83
2021/12/22 07:59:43;;;;;;;20.02;12.68;;;;;;;;;;10529589;28;19999;-84
2021/12/22 08:04:44;;;;;;;24.30;14.07;;;;;;;;;;10519932;28;20029;-82
2021/12/22 08:09:45;;;;;;;24.60;15.52;;;;;;;;;;10516646;28;20113;-84
2021/12/22 08:14:46;;;;;;;22.88;14.85;;;;;;;;;;10511721;28;20040;-81
2021/12/22 08:19:47;;;;;;;25.05;16.08;;;;;;;;;;10510621;28;20028;-80
2021/12/22 08:24:50;;;;;;;20.50;13.73;;;;;;;;;;10510420;28;20024;-80
2021/12/22 08:29:51;;;;;;;21.25;14.02;;;;;;;;;;10511144;28;20028;-80
2021/12/22 08:34:55;;;;;;;21.08;14.52;;;;;;;;;;10510368;28;20463;-80
2021/12/22 08:39:57;;;;;;;21.15;13.63;;;;;;;;;;10509859;28;20021;-80
2021/12/22 08:44:58;;;;;;;23.45;15.95;;;;;;;;;;10511147;28;20474;-80
2021/12/22 08:49:59;;;;;;;21.63;14.43;;;;;;;;;;10512834;28;20028;-80
2021/12/22 08:55:00;;;;;;;20.35;13.70;;;;;;;;;;10509611;28;20395;-79
2021/12/22 09:00:02;;;;;;;19.52;12.98;;;;;;;;;;10509963;28;20051;-81
2021/12/22 09:05:04;;;;;;;16.98;11.85;;;;;;;;;;10509622;28;20216;-83
2021/12/22 09:10:05;;;;;;;19.38;13.05;;;;;;;;;;10509075;28;20135;-80
2021/12/22 09:15:06;;;;;;;;;;;;;;;;;;10511679;28;20051;-80
2021/12/22 09:20:07;;;;;;;16.10;11.32;;;;;;;;;;10511783;28;19904;-79
2021/12/22 09:25:08;;;;;;;18.55;12.50;;;;;;;;;;10520400;28;20040;-80
2021/12/22 09:30:10;;;;;;;15.95;10.45;;;;;;;;;;10525404;28;20028;-79
2021/12/22 09:35:11;;;;;;;16.88;10.20;;;;;;;;;;10522528;28;20067;-79
2021/12/22 09:40:12;;;;;;;;;;;;;;;;;;10512776;28;20056;-84
2021/12/22 09:45:15;;;;;;;16.48;10.90;;;;;;;;;;10505759;28;19916;-80
2021/12/22 09:50:24;;;;;;;14.45;10.00;;;;;;;;;;10514386;28;20112;-78
2021/12/22 09:55:25;;;;;;;14.52;9.32;;;;;;;;;;10508160;28;20031;-80
2021/12/22 10:00:26;;;;;;;16.70;11.27;;;;;;;;;;10505894;28;20437;-79
2021/12/22 10:05:27;;;;;;;12.45;8.45;;;;;;;;;;10507698;28;20033;-80
2021/12/22 10:10:30;;;;;;;23.17;10.45;;;;;;;;;;10504233;28;20043;-80
2021/12/22 10:15:32;;;;;;;15.50;10.45;;;;;;;;;;10507058;28;20028;-81
2021/12/22 10:20:33;;;;;;;15.30;9.93;;;;;;;;;;10503806;28;20115;-81
2021/12/22 10:25:34;;;;;;;17.08;10.65;;;;;;;;;;10503059;28;20021;-80
2021/12/22 10:30:36;;;;;;;14.27;10.10;;;;;;;;;;10503269;28;20152;-81
2021/12/22 10:35:41;;;;;;;18.17;9.50;;;;;;;;;;10504522;28;20021;-80
2021/12/22 10:40:43;;;;;;;14.63;9.57;;;;;;;;;;10505523;28;20040;-81
2021/12/22 10:45:45;;;;;;;17.58;10.07;;;;;;;;;;10507527;28;20085;-81
2021/12/22 10:50:46;;;;;;;19.30;11.60;;;;;;;;;;10507028;28;20116;-81
2021/12/22 10:55:49;;;;;;;15.13;9.95;;;;;;;;;;10523663;28;20032;-80
2021/12/22 11:01:02;;;;;;;16.08;10.15;;;;;;;;;;10517976;28;20039;-79
2021/12/22 11:06:09;;;;;;;16.92;10.48;;;;;;;;;;10504401;28;20032;-79
2021/12/22 11:11:14;;;;;;;14.90;9.32;;;;;;;;;;10511482;28;20106;-80
2021/12/22 11:16:15;;;;;;;16.85;11.27;;;;;;;;;;10512226;28;20044;-80
2021/12/22 11:21:30;;;;;;;15.57;11.02;;;;;;;;;;10506498;28;20028;-80
2021/12/22 11:26:32;;;;;;;15.50;9.75;;;;;;;;;;10505963;28;20033;-80
2021/12/22 11:31:33;;;;;;;13.50;10.05;;;;;;;;;;10507533;28;20024;-80
2021/12/22 11:36:35;;;;;;;;;;;;;;;;;;10514135;28;20614;-80
2021/12/22 11:41:43;;;;;;;16.13;12.15;;;;;;;;;;10514086;28;19933;-80
2021/12/22 11:46:44;;;;;;;17.10;11.27;;;;;;;;;;10513476;28;20123;-79
2021/12/22 11:51:45;;;;;;;16.75;12.95;;;;;;;;;;10516637;28;20036;-79
2021/12/22 11:56:47;;;;;;;18.30;13.05;;;;;;;;;;10521043;28;20029;-81
2021/12/22 12:02:07;;;;;;;16.70;12.05;;;;;;;;;;10536533;28;20028;-80
2021/12/22 12:07:08;;;;;;;17.10;12.68;;;;;;;;;;10513528;28;20033;-81
2021/12/22 12:12:29;;;;;;;14.77;10.50;;;;;;;;;;10514308;28;20093;-82
2021/12/22 12:22:50;;;;;;;14.35;11.45;;;;;;;;;;10512643;28;20100;-79
2021/12/22 12:27:52;;;;;;;13.15;9.73;;;;;;;;;;10511500;28;20044;-81
2021/12/22 12:32:53;;;;;;;14.10;9.50;;;;;;;;;;10513319;28;20029;-78
2021/12/22 12:37:54;;;;;;;;;;;;;;;;;;10511369;28;20032;-79
2021/12/22 12:42:55;;;;;;;11.07;9.15;;;;;;;;;;10510128;28;19908;-78
2021/12/22 12:48:24;;;;;;;12.10;9.35;;;;;;;;;;10509330;28;20045;-79
2021/12/22 12:53:25;;;;;;;11.77;8.40;;;;;;;;;;10509956;28;20028;-81
2021/12/22 12:58:38;;;;;;;11.70;8.60;;;;;;;;;;10511440;28;20028;-79
2021/12/22 13:03:48;;;;;;;12.45;9.20;;;;;;;;;;10514823;28;20020;-79
2021/12/22 13:08:50;;;;;;;13.05;9.52;;;;;;;;;;10514933;28;20104;-80
2021/12/22 13:15:46;;;;;;;11.00;8.15;;;;;;;;;;10512788;28;20037;-82
2021/12/22 13:19:32;;;;;;;14.38;10.80;;;;;;;;;;10514206;28;20044;-80
2021/12/22 13:24:33;;;;;;;10.82;7.93;;;;;;;;;;10517320;28;20085;-81
2021/12/22 13:29:35;;;;;;;10.93;8.05;;;;;;;;;;10514700;28;20100;-80
2021/12/22 13:34:44;;;;;;;11.30;8.88;;;;;;;;;;10515109;28;20028;-81
2021/12/22 13:39:45;;;;;;;10.70;8.25;;;;;;;;;;10514108;28;20020;-81
2021/12/22 13:44:46;;;;;;;12.27;9.05;;;;;;;;;;10512522;28;20029;-82
2021/12/22 13:49:49;;;;;;;9.05;7.75;;;;;;;;;;10514774;28;20055;-81
2021/12/22 13:54:50;;;;;;;10.13;7.63;;;;;;;;;;10512761;28;20069;-81
2021/12/22 13:59:55;;;;;;;10.95;7.97;;;;;;;;;;10510928;28;20040;-81
2021/12/22 14:04:56;;;;;;;12.05;8.57;;;;;;;;;;10513828;28;20048;-81
2021/12/22 14:09:57;;;;;;;9.95;6.68;;;;;;;;;;10516525;28;20024;-79
2021/12/22 14:14:59;;;;;;;10.43;6.93;;;;;;;;;;10527803;28;20033;-81
2021/12/22 14:20:02;;;;;;;8.32;6.78;;;;;;;;;;10513891;28;20028;-79
2021/12/22 14:25:03;;;;;;;11.95;8.55;;;;;;;;;;10511589;28;20020;-81
2021/12/22 14:30:24;;;;;;;10.07;7.50;;;;;;;;;;10511385;28;20048;-81
2021/12/22 14:35:25;;;;;;;;;;;;;;;;;;10511307;28;20056;-80
2021/12/22 14:40:27;;;;;;;12.52;8.05;;;;;;;;;;10511765;28;19904;-81
2021/12/22 14:45:32;;;;;;;11.82;9.13;;;;;;;;;;10510699;28;20029;-80
2021/12/22 14:50:34;;;;;;;9.18;6.88;;;;;;;;;;10509510;28;20017;-80
2021/12/22 14:55:42;;;;;;;9.90;7.18;;;;;;;;;;10511450;28;20465;-80
2021/12/22 15:00:45;;;;;;;8.40;7.03;;;;;;;;;;10533524;28;20048;-80
2021/12/22 15:05:54;;;;;;;10.30;7.63;;;;;;;;;;10519866;28;20035;-83
2021/12/22 15:10:55;;;;;;;8.93;7.00;;;;;;;;;;10519064;28;20028;-81
2021/12/22 15:15:56;;;;;;;9.85;7.43;;;;;;;;;;10516936;28;20028;-82
2021/12/22 15:20:57;;;;;;;8.85;6.97;;;;;;;;;;10523939;28;20535;-82
2021/12/22 15:25:58;;;;;;;8.25;7.10;;;;;;;;;;10521454;28;20445;-82
2021/12/22 15:30:59;;;;;;;;;;;;;;;;;;10521968;28;20378;-81
2021/12/22 15:36:01;;;;;;;10.05;7.28;;;;;;;;;;10519151;28;19911;-81
2021/12/22 15:41:03;;;;;;;8.93;7.35;;;;;;;;;;10518416;28;20044;-82
2021/12/22 15:46:04;;;;;;;12.60;8.20;;;;;;;;;;10515918;28;20486;-81
2021/12/22 15:51:05;;;;;;;;;;;;;;;;;;10513286;28;20406;-82
2021/12/22 15:56:06;;;;;;;12.57;10.75;;;;;;;;;;10513868;28;19905;-81
2021/12/22 16:01:07;;;;;;;14.07;10.27;;;;;;;;;;10522078;28;20023;-82
2021/12/22 16:06:10;;;;;;;12.90;9.23;;;;;;;;;;10518717;28;20082;-80
2021/12/22 16:11:11;;;;;;;10.95;8.38;;;;;;;;;;10522191;28;20044;-81
2021/12/22 16:16:12;;;;;;;10.73;8.50;;;;;;;;;;10519788;28;20039;-78
2021/12/22 16:21:13;;;;;;;12.15;9.65;;;;;;;;;;10531555;28;20019;-80
2021/12/22 16:31:34;;;;;;;10.65;7.65;;;;;;;;;;10521847;28;20062;-80
2021/12/22 16:36:35;;;;;;;10.98;8.73;;;;;;;;;;10521969;28;20368;-81
2021/12/22 16:41:36;;;;;;;;;;;;;;;;;;10527121;28;20021;-79
2021/12/22 16:46:38;;;;;;;10.05;7.72;;;;;;;;;;10522259;28;19912;-80
2021/12/22 16:51:39;;;;;;;13.70;8.32;;;;;;;;;;10523804;28;20040;-82
2021/12/22 16:56:40;;;;;;;14.20;8.30;;;;;;;;;;10525522;28;20501;-82
2021/12/22 17:01:41;;;;;;;9.65;8.13;;;;;;;;;;10523907;28;20203;-81
2021/12/22 17:06:44;;;;;;;9.43;7.63;;;;;;;;;;10524392;28;20084;-82
2021/12/22 17:11:45;;;;;;;9.75;6.93;;;;;;;;;;10524471;28;20040;-81
2021/12/22 17:16:46;;;;;;;12.00;8.52;;;;;;;;;;10524428;28;20029;-81
2021/12/22 17:21:47;;;;;;;9.68;7.10;;;;;;;;;;10526206;28;20028;-80
2021/12/22 17:26:54;;;;;;;11.60;9.43;;;;;;;;;;10533279;28;20123;-81
2021/12/22 17:31:56;;;;;;;11.48;9.30;;;;;;;;;;10530518;28;20394;-82
2021/12/22 17:36:57;;;;;;;11.05;8.02;;;;;;;;;;10530171;28;20405;-83
2021/12/22 17:41:58;;;;;;;;;;;;;;;;;;10528877;28;20108;-83
2021/12/22 17:46:59;;;;;;;11.07;9.90;;;;;;;;;;10527099;28;19972;-83
2021/12/22 17:52:00;;;;;;;10.90;8.60;;;;;;;;;;10527391;28;20039;-83
2021/12/22 17:57:01;;;;;;;13.35;10.50;;;;;;;;;;10520564;28;20029;-82
2021/12/22 18:02:02;;;;;;;11.38;9.57;;;;;;;;;;10513119;28;20043;-82
2021/12/22 18:07:04;;;;;;;13.32;10.63;;;;;;;;;;10510864;28;20386;-82
2021/12/22 18:12:05;;;;;;;10.90;8.68;;;;;;;;;;10511803;28;20024;-82
2021/12/22 18:17:07;;;;;;;;;;;;;;;;;;10510670;28;20031;-82
2021/12/22 18:22:09;;;;;;;9.13;7.00;;;;;;;;;;10511451;28;19947;-82
2021/12/22 18:27:11;;;;;;;10.35;8.13;;;;;;;;;;10511503;28;20037;-82
2021/12/22 18:32:12;;;;;;;9.18;7.82;;;;;;;;;;10520012;28;20032;-82
2021/12/22 18:37:20;;;;;;;;;;;;;;;;;;10522400;28;20029;-83
2021/12/22 18:42:23;;;;;;;8.95;7.47;;;;;;;;;;10513282;28;19911;-83
2021/12/22 18:47:24;;;;;;;8.93;7.22;;;;;;;;;;10512635;28;20047;-83
2021/12/22 18:52:28;;;;;;;10.90;8.07;;;;;;;;;;10513738;28;20025;-83
2021/12/22 18:57:33;;;;;;;9.40;7.65;;;;;;;;;;10515413;28;20055;-83
2021/12/22 19:02:34;;;;;;;10.02;8.70;;;;;;;;;;10535726;28;20013;-81
2021/12/22 19:07:35;;;;;;;11.05;9.65;;;;;;;;;;10542040;28;20044;-82
2021/12/22 19:12:37;;;;;;;11.93;10.23;;;;;;;;;;10507428;28;20483;-82
2021/12/22 19:17:40;;;;;;;11.52;9.25;;;;;;;;;;10490913;28;20085;-82
2021/12/22 19:22:41;;;;;;;8.23;7.13;;;;;;;;;;10507373;28;20062;-81
2021/12/22 19:27:43;;;;;;;8.50;7.60;;;;;;;;;;10507394;28;20028;-81
2021/12/22 19:32:45;;;;;;;9.10;8.13;;;;;;;;;;10493747;28;20392;-82
2021/12/22 19:37:46;;;;;;;9.10;7.18;;;;;;;;;;10510707;28;20029;-82
2021/12/22 19:42:47;;;;;;;11.32;8.65;;;;;;;;;;10510116;28;20407;-81
2021/12/22 19:47:49;;;;;;;12.63;10.18;;;;;;;;;;10509149;28;20064;-82
2021/12/22 19:52:50;;;;;;;11.13;9.18;;;;;;;;;;10509939;28;20090;-82
2021/12/22 19:57:51;;;;;;;10.05;7.78;;;;;;;;;;10540834;28;20005;-82
2021/12/22 20:02:52;;;;;;;8.10;7.07;;;;;;;;;;10544364;28;20033;-82
2021/12/22 20:07:54;;;;;;;11.57;9.98;;;;;;;;;;10551976;28;20061;-80
2021/12/22 20:12:55;;;;;;;10.05;8.95;;;;;;;;;;10555268;28;20013;-81
2021/12/22 20:17:56;;;;;;;9.68;8.68;;;;;;;;;;10529422;28;20526;-83
2021/12/22 20:22:57;;;;;;;;;;;;;;;;;;10519864;28;20024;-82
2021/12/22 20:27:58;;;;;;;11.43;10.23;;;;;;;;;;10517214;28;19912;-82
2021/12/22 20:33:00;;;;;;;;;;;;;;;;;;10517650;28;20025;-82
2021/12/22 20:38:02;;;;;;;13.60;10.20;;;;;;;;;;10518766;28;19910;-83
2021/12/22 20:43:06;;;;;;;9.77;8.32;;;;;;;;;;10524628;28;20104;-83
2021/12/22 20:48:07;;;;;;;12.82;9.27;;;;;;;;;;10531417;28;20048;-83
2021/12/22 20:53:09;;;;;;;;;;;;;;;;;;10526949;28;20121;-82
2021/12/22 20:58:10;;;;;;;13.13;10.20;;;;;;;;;;10527587;28;19904;-82
2021/12/22 21:03:12;;;;;;;10.20;8.15;;;;;;;;;;10527415;28;20115;-82
2021/12/22 21:08:13;;;;;;;14.05;9.07;;;;;;;;;;10526825;28;20032;-82
2021/12/22 21:13:15;;;;;;;10.68;9.18;;;;;;;;;;10528943;28;20017;-82
